sensor_id;sensor_type;location;lat;lon;timestamp;temperature;humidity
16825;DHT22;8529;48.108;-1.706;2022-11-11T00:02:20;12.60;99.90
16825;DHT22;8529;48.108;-1.706;2022-11-11T00:04:47;12.60;99.90
16825;DHT22;8529;48.108;-1.706;2022-11-11T00:07:14;12.50;99.90
16825;DHT22;8529;48.108;-1.706;2022-11-11T00:09:41;12.50;99.90
16825;DHT22;8529;48.108;-1.706;2022-11-11T00:12:08;12.40;99.90
16825;DHT22;8529;48.108;-1.706;2022-11-11T00:14:35;12.40;99.90
16825;DHT22;8529;48.108;-1.706;2022-11-11T00:17:02;12.30;99.90
16825;DHT22;8529;48.108;-1.706;2022-11-11T00:19:48;12.30;99.90
16825;DHT22;8529;48.108;-1.706;2022-11-11T00:22:33;12.30;99.90
16825;DHT22;8529;48.108;-1.706;2022-11-11T00:25:18;12.20;99.90
16825;DHT22;8529;48.108;-1.706;2022-11-11T00:27:45;12.20;99.90
16825;DHT22;8529;48.108;-1.706;2022-11-11T00:30:12;12.10;99.90
16825;DHT22;8529;48.108;-1.706;2022-11-11T00:32:39;12.10;99.90
16825;DHT22;8529;48.108;-1.706;2022-11-11T00:35:08;12.10;99.90
16825;DHT22;8529;48.108;-1.706;2022-11-11T00:37:53;12.10;99.90
16825;DHT22;8529;48.108;-1.706;2022-11-11T00:40:20;12.00;99.90
16825;DHT22;8529;48.108;-1.706;2022-11-11T00:42:47;12.00;99.90
16825;DHT22;8529;48.108;-1.706;2022-11-11T00:45:14;12.00;99.90
16825;DHT22;8529;48.108;-1.706;2022-11-11T00:47:41;12.00;99.90
16825;DHT22;8529;48.108;-1.706;2022-11-11T00:50:28;11.90;99.90
16825;DHT22;8529;48.108;-1.706;2022-11-11T00:53:14;11.90;99.90
16825;DHT22;8529;48.108;-1.706;2022-11-11T00:55:42;11.90;99.90
16825;DHT22;8529;48.108;-1.706;2022-11-11T00:58:08;11.90;99.90
16825;DHT22;8529;48.108;-1.706;2022-11-11T01:00:35;11.80;99.90
16825;DHT22;8529;48.108;-1.706;2022-11-11T01:03:03;11.80;99.90
16825;DHT22;8529;48.108;-1.706;2022-11-11T01:05:31;11.90;99.90
16825;DHT22;8529;48.108;-1.706;2022-11-11T01:07:58;11.80;99.90
16825;DHT22;8529;48.108;-1.706;2022-11-11T01:10:25;11.80;99.90
16825;DHT22;8529;48.108;-1.706;2022-11-11T01:13:13;11.80;99.90
16825;DHT22;8529;48.108;-1.706;2022-11-11T01:15:42;11.80;99.90
16825;DHT22;8529;48.108;-1.706;2022-11-11T01:18:10;11.80;99.90
16825;DHT22;8529;48.108;-1.706;2022-11-11T01:20:40;11.80;99.90
16825;DHT22;8529;48.108;-1.706;2022-11-11T01:23:09;11.70;99.90
16825;DHT22;8529;48.108;-1.706;2022-11-11T01:25:38;11.70;99.90
16825;DHT22;8529;48.108;-1.706;2022-11-11T01:28:06;11.70;99.90
16825;DHT22;8529;48.108;-1.706;2022-11-11T01:30:34;11.60;99.90
16825;DHT22;8529;48.108;-1.706;2022-11-11T01:33:01;11.60;99.90
16825;DHT22;8529;48.108;-1.706;2022-11-11T01:35:28;11.50;99.90
16825;DHT22;8529;48.108;-1.706;2022-11-11T01:37:57;11.50;99.90
16825;DHT22;8529;48.108;-1.706;2022-11-11T01:40:24;11.50;99.90
16825;DHT22;8529;48.108;-1.706;2022-11-11T01:42:52;11.40;99.90
16825;DHT22;8529;48.108;-1.706;2022-11-11T01:45:49;11.40;99.90
16825;DHT22;8529;48.108;-1.706;2022-11-11T01:48:20;11.40;99.90
16825;DHT22;8529;48.108;-1.706;2022-11-11T01:51:12;11.40;99.90
16825;DHT22;8529;48.108;-1.706;2022-11-11T01:53:42;11.40;99.90
16825;DHT22;8529;48.108;-1.706;2022-11-11T01:56:09;11.40;99.90
16825;DHT22;8529;48.108;-1.706;2022-11-11T01:58:38;11.40;99.90
16825;DHT22;8529;48.108;-1.706;2022-11-11T02:01:05;11.30;99.90
16825;DHT22;8529;48.108;-1.706;2022-11-11T02:03:38;11.30;99.90
16825;DHT22;8529;48.108;-1.706;2022-11-11T02:06:06;11.30;99.90
16825;DHT22;8529;48.108;-1.706;2022-11-11T02:08:35;11.30;99.90
16825;DHT22;8529;48.108;-1.706;2022-11-11T02:11:08;11.30;99.90
16825;DHT22;8529;48.108;-1.706;2022-11-11T02:13:37;11.30;99.90
16825;DHT22;8529;48.108;-1.706;2022-11-11T02:16:22;11.30;99.90
16825;DHT22;8529;48.108;-1.706;2022-11-11T02:18:49;11.20;99.90
16825;DHT22;8529;48.108;-1.706;2022-11-11T02:21:21;11.20;99.90
16825;DHT22;8529;48.108;-1.706;2022-11-11T02:23:59;11.20;99.90
16825;DHT22;8529;48.108;-1.706;2022-11-11T02:26:30;11.20;99.90
16825;DHT22;8529;48.108;-1.706;2022-11-11T02:28:58;11.10;99.90
16825;DHT22;8529;48.108;-1.706;2022-11-11T02:31:27;11.10;99.90
16825;DHT22;8529;48.108;-1.706;2022-11-11T02:33:54;11.10;99.90
16825;DHT22;8529;48.108;-1.706;2022-11-11T02:36:21;11.00;99.90
16825;DHT22;8529;48.108;-1.706;2022-11-11T02:38:49;11.00;99.90
16825;DHT22;8529;48.108;-1.706;2022-11-11T02:41:18;11.00;99.90
16825;DHT22;8529;48.108;-1.706;2022-11-11T02:44:02;11.00;99.90
16825;DHT22;8529;48.108;-1.706;2022-11-11T02:46:29;11.00;99.90
16825;DHT22;8529;48.108;-1.706;2022-11-11T02:48:56;11.10;99.90
16825;DHT22;8529;48.108;-1.706;2022-11-11T02:51:23;11.10;99.90
16825;DHT22;8529;48.108;-1.706;2022-11-11T02:53:50;11.10;99.90
16825;DHT22;8529;48.108;-1.706;2022-11-11T02:56:18;11.10;99.90
16825;DHT22;8529;48.108;-1.706;2022-11-11T02:58:59;11.10;99.90
16825;DHT22;8529;48.108;-1.706;2022-11-11T03:01:26;11.10;99.90
16825;DHT22;8529;48.108;-1.706;2022-11-11T03:03:53;11.10;99.90
16825;DHT22;8529;48.108;-1.706;2022-11-11T03:06:20;11.10;99.90
16825;DHT22;8529;48.108;-1.706;2022-11-11T03:08:46;11.10;99.90
16825;DHT22;8529;48.108;-1.706;2022-11-11T03:11:13;11.10;99.90
16825;DHT22;8529;48.108;-1.706;2022-11-11T03:13:42;11.00;99.90
16825;DHT22;8529;48.108;-1.706;2022-11-11T03:16:08;11.00;99.90
16825;DHT22;8529;48.108;-1.706;2022-11-11T03:18:55;11.00;99.90
16825;DHT22;8529;48.108;-1.706;2022-11-11T03:21:21;11.00;99.90
16825;DHT22;8529;48.108;-1.706;2022-11-11T03:23:48;11.00;99.90
16825;DHT22;8529;48.108;-1.706;2022-11-11T03:26:15;11.00;99.90
16825;DHT22;8529;48.108;-1.706;2022-11-11T03:28:43;11.00;99.90
16825;DHT22;8529;48.108;-1.706;2022-11-11T03:31:10;11.00;99.90
16825;DHT22;8529;48.108;-1.706;2022-11-11T03:33:37;11.00;99.90
16825;DHT22;8529;48.108;-1.706;2022-11-11T03:36:04;10.90;99.90
16825;DHT22;8529;48.108;-1.706;2022-11-11T03:38:31;10.90;99.90
16825;DHT22;8529;48.108;-1.706;2022-11-11T03:40:57;10.90;99.90
16825;DHT22;8529;48.108;-1.706;2022-11-11T03:43:26;10.90;99.90
16825;DHT22;8529;48.108;-1.706;2022-11-11T03:45:56;11.00;99.90
16825;DHT22;8529;48.108;-1.706;2022-11-11T03:48:24;11.00;99.90
16825;DHT22;8529;48.108;-1.706;2022-11-11T03:50:52;11.00;99.90
16825;DHT22;8529;48.108;-1.706;2022-11-11T03:53:19;11.00;99.90
16825;DHT22;8529;48.108;-1.706;2022-11-11T03:55:47;11.00;99.90
16825;DHT22;8529;48.108;-1.706;2022-11-11T03:58:15;11.00;99.90
16825;DHT22;8529;48.108;-1.706;2022-11-11T04:00:42;11.00;99.90
16825;DHT22;8529;48.108;-1.706;2022-11-11T04:03:12;11.00;99.90
16825;DHT22;8529;48.108;-1.706;2022-11-11T04:05:57;11.00;99.90
16825;DHT22;8529;48.108;-1.706;2022-11-11T04:08:42;11.00;99.90
16825;DHT22;8529;48.108;-1.706;2022-11-11T04:11:28;11.10;99.90
16825;DHT22;8529;48.108;-1.706;2022-11-11T04:13:57;11.10;99.90
16825;DHT22;8529;48.108;-1.706;2022-11-11T04:16:42;11.10;99.90
16825;DHT22;8529;48.108;-1.706;2022-11-11T04:19:11;11.10;99.90
16825;DHT22;8529;48.108;-1.706;2022-11-11T04:21:55;11.10;99.90
16825;DHT22;8529;48.108;-1.706;2022-11-11T04:24:22;11.10;99.90
16825;DHT22;8529;48.108;-1.706;2022-11-11T04:27:08;11.10;99.90
16825;DHT22;8529;48.108;-1.706;2022-11-11T04:29:36;11.10;99.90
16825;DHT22;8529;48.108;-1.706;2022-11-11T04:32:04;11.10;99.90
16825;DHT22;8529;48.108;-1.706;2022-11-11T04:34:52;11.10;99.90
16825;DHT22;8529;48.108;-1.706;2022-11-11T04:37:20;11.10;99.90
16825;DHT22;8529;48.108;-1.706;2022-11-11T04:39:48;11.10;99.90
16825;DHT22;8529;48.108;-1.706;2022-11-11T04:42:33;11.10;99.90
16825;DHT22;8529;48.108;-1.706;2022-11-11T04:45:01;11.20;99.90
16825;DHT22;8529;48.108;-1.706;2022-11-11T04:47:53;11.20;99.90
16825;DHT22;8529;48.108;-1.706;2022-11-11T04:50:22;11.20;99.90
16825;DHT22;8529;48.108;-1.706;2022-11-11T04:52:49;11.20;99.90
16825;DHT22;8529;48.108;-1.706;2022-11-11T04:55:16;11.10;99.90
16825;DHT22;8529;48.108;-1.706;2022-11-11T04:58:01;11.10;99.90
16825;DHT22;8529;48.108;-1.706;2022-11-11T05:00:28;11.10;99.90
16825;DHT22;8529;48.108;-1.706;2022-11-11T05:02:55;11.10;99.90
16825;DHT22;8529;48.108;-1.706;2022-11-11T05:05:42;11.10;99.90
16825;DHT22;8529;48.108;-1.706;2022-11-11T05:08:27;11.10;99.90
16825;DHT22;8529;48.108;-1.706;2022-11-11T05:11:12;11.10;99.90
16825;DHT22;8529;48.108;-1.706;2022-11-11T05:13:39;11.10;99.90
16825;DHT22;8529;48.108;-1.706;2022-11-11T05:16:26;11.10;99.90
16825;DHT22;8529;48.108;-1.706;2022-11-11T05:19:12;11.10;99.90
16825;DHT22;8529;48.108;-1.706;2022-11-11T05:22:06;11.10;99.90
16825;DHT22;8529;48.108;-1.706;2022-11-11T05:24:34;11.10;99.90
16825;DHT22;8529;48.108;-1.706;2022-11-11T05:27:18;11.10;99.90
16825;DHT22;8529;48.108;-1.706;2022-11-11T05:29:46;11.10;99.90
16825;DHT22;8529;48.108;-1.706;2022-11-11T05:32:15;11.10;99.90
16825;DHT22;8529;48.108;-1.706;2022-11-11T05:34:43;11.10;99.90
16825;DHT22;8529;48.108;-1.706;2022-11-11T05:37:11;11.10;99.90
16825;DHT22;8529;48.108;-1.706;2022-11-11T05:39:38;11.10;99.90
16825;DHT22;8529;48.108;-1.706;2022-11-11T05:42:06;11.10;99.90
16825;DHT22;8529;48.108;-1.706;2022-11-11T05:44:33;11.10;99.90
16825;DHT22;8529;48.108;-1.706;2022-11-11T05:47:00;11.10;99.90
16825;DHT22;8529;48.108;-1.706;2022-11-11T05:49:27;11.20;99.90
16825;DHT22;8529;48.108;-1.706;2022-11-11T05:51:54;11.20;99.90
16825;DHT22;8529;48.108;-1.706;2022-11-11T05:54:22;11.10;99.90
16825;DHT22;8529;48.108;-1.706;2022-11-11T05:56:50;11.20;99.90
16825;DHT22;8529;48.108;-1.706;2022-11-11T05:59:17;11.10;99.90
16825;DHT22;8529;48.108;-1.706;2022-11-11T06:01:44;11.10;99.90
16825;DHT22;8529;48.108;-1.706;2022-11-11T06:04:11;11.10;99.90
16825;DHT22;8529;48.108;-1.706;2022-11-11T06:06:38;11.10;99.90
16825;DHT22;8529;48.108;-1.706;2022-11-11T06:09:05;11.10;99.90
16825;DHT22;8529;48.108;-1.706;2022-11-11T06:11:33;11.10;99.90
16825;DHT22;8529;48.108;-1.706;2022-11-11T06:14:00;11.10;99.90
16825;DHT22;8529;48.108;-1.706;2022-11-11T06:16:27;11.10;99.90
16825;DHT22;8529;48.108;-1.706;2022-11-11T06:18:54;11.10;99.90
16825;DHT22;8529;48.108;-1.706;2022-11-11T06:21:21;11.00;99.90
16825;DHT22;8529;48.108;-1.706;2022-11-11T06:23:48;11.00;99.90
16825;DHT22;8529;48.108;-1.706;2022-11-11T06:26:15;11.00;99.90
16825;DHT22;8529;48.108;-1.706;2022-11-11T06:28:44;11.10;99.90
16825;DHT22;8529;48.108;-1.706;2022-11-11T06:31:13;11.10;99.90
16825;DHT22;8529;48.108;-1.706;2022-11-11T06:33:41;11.10;99.90
16825;DHT22;8529;48.108;-1.706;2022-11-11T06:36:10;11.10;99.90
16825;DHT22;8529;48.108;-1.706;2022-11-11T06:38:38;11.10;99.90
16825;DHT22;8529;48.108;-1.706;2022-11-11T06:41:05;11.00;99.90
16825;DHT22;8529;48.108;-1.706;2022-11-11T06:43:32;11.00;99.90
16825;DHT22;8529;48.108;-1.706;2022-11-11T06:46:01;11.00;99.90
16825;DHT22;8529;48.108;-1.706;2022-11-11T06:48:28;11.00;99.90
16825;DHT22;8529;48.108;-1.706;2022-11-11T06:51:00;11.00;99.90
16825;DHT22;8529;48.108;-1.706;2022-11-11T06:53:28;11.00;99.90
16825;DHT22;8529;48.108;-1.706;2022-11-11T06:55:55;11.00;99.90
16825;DHT22;8529;48.108;-1.706;2022-11-11T06:58:23;11.00;99.90
16825;DHT22;8529;48.108;-1.706;2022-11-11T07:00:50;11.00;99.90
16825;DHT22;8529;48.108;-1.706;2022-11-11T07:03:20;11.00;99.90
16825;DHT22;8529;48.108;-1.706;2022-11-11T07:05:47;11.10;99.90
16825;DHT22;8529;48.108;-1.706;2022-11-11T07:08:17;11.10;99.90
16825;DHT22;8529;48.108;-1.706;2022-11-11T07:10:45;11.10;99.90
16825;DHT22;8529;48.108;-1.706;2022-11-11T07:13:13;11.10;99.90
16825;DHT22;8529;48.108;-1.706;2022-11-11T07:15:41;11.10;99.90
16825;DHT22;8529;48.108;-1.706;2022-11-11T07:18:08;11.00;99.90
16825;DHT22;8529;48.108;-1.706;2022-11-11T07:20:37;11.00;99.90
16825;DHT22;8529;48.108;-1.706;2022-11-11T07:23:04;11.10;99.90
16825;DHT22;8529;48.108;-1.706;2022-11-11T07:25:32;11.10;99.90
16825;DHT22;8529;48.108;-1.706;2022-11-11T07:27:59;11.10;99.90
16825;DHT22;8529;48.108;-1.706;2022-11-11T07:30:26;11.10;99.90
16825;DHT22;8529;48.108;-1.706;2022-11-11T07:32:53;11.10;99.90
16825;DHT22;8529;48.108;-1.706;2022-11-11T07:35:21;11.10;99.90
16825;DHT22;8529;48.108;-1.706;2022-11-11T07:37:49;11.10;99.90
16825;DHT22;8529;48.108;-1.706;2022-11-11T07:40:17;11.10;99.90
16825;DHT22;8529;48.108;-1.706;2022-11-11T07:42:45;11.00;99.90
16825;DHT22;8529;48.108;-1.706;2022-11-11T07:45:13;11.10;99.90
16825;DHT22;8529;48.108;-1.706;2022-11-11T07:47:42;11.10;99.90
16825;DHT22;8529;48.108;-1.706;2022-11-11T07:50:10;11.10;99.90
16825;DHT22;8529;48.108;-1.706;2022-11-11T07:52:37;11.10;99.90
16825;DHT22;8529;48.108;-1.706;2022-11-11T07:55:06;11.10;99.90
16825;DHT22;8529;48.108;-1.706;2022-11-11T07:57:33;11.10;99.90
16825;DHT22;8529;48.108;-1.706;2022-11-11T08:00:00;11.10;99.90
16825;DHT22;8529;48.108;-1.706;2022-11-11T08:02:27;11.10;99.90
16825;DHT22;8529;48.108;-1.706;2022-11-11T08:04:54;11.10;99.90
16825;DHT22;8529;48.108;-1.706;2022-11-11T08:07:21;11.10;99.90
16825;DHT22;8529;48.108;-1.706;2022-11-11T08:09:48;11.10;99.90
16825;DHT22;8529;48.108;-1.706;2022-11-11T08:12:17;11.10;99.90
16825;DHT22;8529;48.108;-1.706;2022-11-11T08:15:02;11.10;99.90
16825;DHT22;8529;48.108;-1.706;2022-11-11T08:17:29;11.10;99.90
16825;DHT22;8529;48.108;-1.706;2022-11-11T08:19:56;11.20;99.90
16825;DHT22;8529;48.108;-1.706;2022-11-11T08:22:23;11.20;99.90
16825;DHT22;8529;48.108;-1.706;2022-11-11T08:24:50;11.20;99.90
16825;DHT22;8529;48.108;-1.706;2022-11-11T08:27:18;11.20;99.90
16825;DHT22;8529;48.108;-1.706;2022-11-11T08:29:45;11.20;99.90
16825;DHT22;8529;48.108;-1.706;2022-11-11T08:32:12;11.20;99.90
16825;DHT22;8529;48.108;-1.706;2022-11-11T08:34:39;11.20;99.90
16825;DHT22;8529;48.108;-1.706;2022-11-11T08:37:06;11.30;99.90
16825;DHT22;8529;48.108;-1.706;2022-11-11T08:39:33;11.20;99.90
16825;DHT22;8529;48.108;-1.706;2022-11-11T08:42:00;11.20;99.90
16825;DHT22;8529;48.108;-1.706;2022-11-11T08:44:28;11.20;99.90
16825;DHT22;8529;48.108;-1.706;2022-11-11T08:46:55;11.20;99.90
16825;DHT22;8529;48.108;-1.706;2022-11-11T08:49:22;11.20;99.90
16825;DHT22;8529;48.108;-1.706;2022-11-11T08:51:49;11.20;99.90
16825;DHT22;8529;48.108;-1.706;2022-11-11T08:54:16;11.10;99.90
16825;DHT22;8529;48.108;-1.706;2022-11-11T08:56:43;11.10;99.90
16825;DHT22;8529;48.108;-1.706;2022-11-11T08:59:10;11.10;99.90
16825;DHT22;8529;48.108;-1.706;2022-11-11T09:01:38;11.10;99.90
16825;DHT22;8529;48.108;-1.706;2022-11-11T09:04:06;11.10;99.90
16825;DHT22;8529;48.108;-1.706;2022-11-11T09:06:33;11.10;99.90
16825;DHT22;8529;48.108;-1.706;2022-11-11T09:08:59;11.10;99.90
16825;DHT22;8529;48.108;-1.706;2022-11-11T09:11:26;11.00;99.90
16825;DHT22;8529;48.108;-1.706;2022-11-11T09:14:00;11.00;99.90
16825;DHT22;8529;48.108;-1.706;2022-11-11T09:16:27;11.00;99.90
16825;DHT22;8529;48.108;-1.706;2022-11-11T09:18:56;11.10;99.90
16825;DHT22;8529;48.108;-1.706;2022-11-11T09:21:23;11.10;99.90
16825;DHT22;8529;48.108;-1.706;2022-11-11T09:23:50;11.10;99.90
16825;DHT22;8529;48.108;-1.706;2022-11-11T09:26:17;11.10;99.90
16825;DHT22;8529;48.108;-1.706;2022-11-11T09:28:44;11.10;99.90
16825;DHT22;8529;48.108;-1.706;2022-11-11T09:31:11;11.10;99.90
16825;DHT22;8529;48.108;-1.706;2022-11-11T09:33:38;11.10;99.90
16825;DHT22;8529;48.108;-1.706;2022-11-11T09:36:06;11.10;99.90
16825;DHT22;8529;48.108;-1.706;2022-11-11T09:38:33;11.00;99.90
16825;DHT22;8529;48.108;-1.706;2022-11-11T09:41:11;11.00;99.90
16825;DHT22;8529;48.108;-1.706;2022-11-11T09:43:45;11.00;99.90
16825;DHT22;8529;48.108;-1.706;2022-11-11T09:46:28;11.00;99.90
16825;DHT22;8529;48.108;-1.706;2022-11-11T09:51:54;11.10;99.90
16825;DHT22;8529;48.108;-1.706;2022-11-11T09:54:32;11.00;99.90
16825;DHT22;8529;48.108;-1.706;2022-11-11T09:57:04;11.00;99.90
16825;DHT22;8529;48.108;-1.706;2022-11-11T09:59:39;11.00;99.90
16825;DHT22;8529;48.108;-1.706;2022-11-11T10:02:17;11.00;99.90
16825;DHT22;8529;48.108;-1.706;2022-11-11T10:04:51;11.00;99.90
16825;DHT22;8529;48.108;-1.706;2022-11-11T10:07:30;11.00;99.90
16825;DHT22;8529;48.108;-1.706;2022-11-11T10:10:05;11.00;99.90
16825;DHT22;8529;48.108;-1.706;2022-11-11T10:12:37;11.00;99.90
16825;DHT22;8529;48.108;-1.706;2022-11-11T10:15:10;11.00;99.90
16825;DHT22;8529;48.108;-1.706;2022-11-11T10:17:49;11.10;99.90
16825;DHT22;8529;48.108;-1.706;2022-11-11T10:20:24;11.10;99.90
16825;DHT22;8529;48.108;-1.706;2022-11-11T10:22:59;11.10;99.90
16825;DHT22;8529;48.108;-1.706;2022-11-11T10:25:27;11.10;99.90
16825;DHT22;8529;48.108;-1.706;2022-11-11T10:27:57;11.10;99.90
16825;DHT22;8529;48.108;-1.706;2022-11-11T10:30:26;11.10;99.90
16825;DHT22;8529;48.108;-1.706;2022-11-11T10:32:56;11.10;99.90
16825;DHT22;8529;48.108;-1.706;2022-11-11T10:35:25;11.10;99.90
16825;DHT22;8529;48.108;-1.706;2022-11-11T10:38:05;11.10;99.90
16825;DHT22;8529;48.108;-1.706;2022-11-11T10:40:41;11.10;99.90
16825;DHT22;8529;48.108;-1.706;2022-11-11T10:43:19;11.10;99.90
16825;DHT22;8529;48.108;-1.706;2022-11-11T10:45:53;11.10;99.90
16825;DHT22;8529;48.108;-1.706;2022-11-11T10:48:23;11.10;99.90
16825;DHT22;8529;48.108;-1.706;2022-11-11T10:50:57;11.10;99.90
16825;DHT22;8529;48.108;-1.706;2022-11-11T10:53:32;11.10;99.90
16825;DHT22;8529;48.108;-1.706;2022-11-11T10:56:12;11.20;99.90
16825;DHT22;8529;48.108;-1.706;2022-11-11T10:58:45;11.20;99.90
16825;DHT22;8529;48.108;-1.706;2022-11-11T11:01:19;11.20;99.90
16825;DHT22;8529;48.108;-1.706;2022-11-11T11:03:51;11.10;99.90
16825;DHT22;8529;48.108;-1.706;2022-11-11T11:06:24;11.20;99.90
16825;DHT22;8529;48.108;-1.706;2022-11-11T11:08:58;11.20;99.90
16825;DHT22;8529;48.108;-1.706;2022-11-11T11:11:30;11.20;99.90
16825;DHT22;8529;48.108;-1.706;2022-11-11T11:14:00;11.20;99.90
16825;DHT22;8529;48.108;-1.706;2022-11-11T11:16:32;11.20;99.90
16825;DHT22;8529;48.108;-1.706;2022-11-11T11:19:14;11.30;99.90
16825;DHT22;8529;48.108;-1.706;2022-11-11T11:21:49;11.30;99.90
16825;DHT22;8529;48.108;-1.706;2022-11-11T11:24:23;11.20;99.90
16825;DHT22;8529;48.108;-1.706;2022-11-11T11:26:52;11.20;99.90
16825;DHT22;8529;48.108;-1.706;2022-11-11T11:29:30;11.20;99.90
16825;DHT22;8529;48.108;-1.706;2022-11-11T11:32:13;11.20;99.90
16825;DHT22;8529;48.108;-1.706;2022-11-11T11:34:46;11.20;99.90
16825;DHT22;8529;48.108;-1.706;2022-11-11T11:37:14;11.20;99.90
16825;DHT22;8529;48.108;-1.706;2022-11-11T11:39:42;11.30;99.90
16825;DHT22;8529;48.108;-1.706;2022-11-11T11:42:27;11.30;99.90
16825;DHT22;8529;48.108;-1.706;2022-11-11T11:44:54;11.30;99.90
16825;DHT22;8529;48.108;-1.706;2022-11-11T11:47:36;11.40;99.90
16825;DHT22;8529;48.108;-1.706;2022-11-11T11:50:30;11.40;99.90
16825;DHT22;8529;48.108;-1.706;2022-11-11T11:53:12;11.50;99.90
16825;DHT22;8529;48.108;-1.706;2022-11-11T11:55:49;11.50;99.90
16825;DHT22;8529;48.108;-1.706;2022-11-11T11:58:24;11.60;99.90
16825;DHT22;8529;48.108;-1.706;2022-11-11T12:01:02;11.60;99.90
16825;DHT22;8529;48.108;-1.706;2022-11-11T12:06:35;11.60;99.90
16825;DHT22;8529;48.108;-1.706;2022-11-11T12:09:12;11.60;99.90
16825;DHT22;8529;48.108;-1.706;2022-11-11T12:11:51;11.60;99.90
16825;DHT22;8529;48.108;-1.706;2022-11-11T12:14:41;11.60;99.90
16825;DHT22;8529;48.108;-1.706;2022-11-11T12:17:23;11.70;99.90
16825;DHT22;8529;48.108;-1.706;2022-11-11T12:19:58;11.70;99.90
16825;DHT22;8529;48.108;-1.706;2022-11-11T12:22:35;11.80;99.90
16825;DHT22;8529;48.108;-1.706;2022-11-11T12:25:15;11.80;99.90
16825;DHT22;8529;48.108;-1.706;2022-11-11T12:27:54;11.70;99.90
16825;DHT22;8529;48.108;-1.706;2022-11-11T12:30:23;11.70;99.90
16825;DHT22;8529;48.108;-1.706;2022-11-11T12:33:15;11.70;99.90
16825;DHT22;8529;48.108;-1.706;2022-11-11T12:35:56;11.70;99.90
16825;DHT22;8529;48.108;-1.706;2022-11-11T12:38:49;11.70;99.90
16825;DHT22;8529;48.108;-1.706;2022-11-11T12:41:40;11.70;99.90
16825;DHT22;8529;48.108;-1.706;2022-11-11T12:44:13;11.70;99.90
16825;DHT22;8529;48.108;-1.706;2022-11-11T12:46:58;11.80;99.90
16825;DHT22;8529;48.108;-1.706;2022-11-11T12:49:39;11.80;99.90
16825;DHT22;8529;48.108;-1.706;2022-11-11T12:52:19;11.90;99.90
16825;DHT22;8529;48.108;-1.706;2022-11-11T12:55:03;11.90;99.90
16825;DHT22;8529;48.108;-1.706;2022-11-11T12:57:41;11.90;99.90
16825;DHT22;8529;48.108;-1.706;2022-11-11T13:00:16;11.90;99.90
16825;DHT22;8529;48.108;-1.706;2022-11-11T13:03:05;11.90;99.90
16825;DHT22;8529;48.108;-1.706;2022-11-11T13:05:35;11.90;99.90
16825;DHT22;8529;48.108;-1.706;2022-11-11T13:08:25;12.00;99.90
16825;DHT22;8529;48.108;-1.706;2022-11-11T13:11:00;12.00;99.90
16825;DHT22;8529;48.108;-1.706;2022-11-11T13:13:40;12.00;99.90
16825;DHT22;8529;48.108;-1.706;2022-11-11T13:16:14;12.00;99.90
16825;DHT22;8529;48.108;-1.706;2022-11-11T13:18:47;12.00;99.90
16825;DHT22;8529;48.108;-1.706;2022-11-11T13:21:20;12.00;99.90
16825;DHT22;8529;48.108;-1.706;2022-11-11T13:23:48;11.90;99.90
16825;DHT22;8529;48.108;-1.706;2022-11-11T13:26:25;12.00;99.90
16825;DHT22;8529;48.108;-1.706;2022-11-11T13:29:02;12.00;99.90
16825;DHT22;8529;48.108;-1.706;2022-11-11T13:31:34;12.00;99.90
16825;DHT22;8529;48.108;-1.706;2022-11-11T13:34:04;12.00;99.90
16825;DHT22;8529;48.108;-1.706;2022-11-11T13:36:43;12.00;99.90
16825;DHT22;8529;48.108;-1.706;2022-11-11T13:39:23;12.00;99.90
16825;DHT22;8529;48.108;-1.706;2022-11-11T13:41:53;12.00;99.90
16825;DHT22;8529;48.108;-1.706;2022-11-11T13:44:23;11.90;99.90
16825;DHT22;8529;48.108;-1.706;2022-11-11T13:46:59;11.90;99.90
16825;DHT22;8529;48.108;-1.706;2022-11-11T13:49:30;11.90;99.90
16825;DHT22;8529;48.108;-1.706;2022-11-11T13:51:59;11.80;99.90
16825;DHT22;8529;48.108;-1.706;2022-11-11T13:54:29;11.80;99.90
16825;DHT22;8529;48.108;-1.706;2022-11-11T13:57:03;11.80;99.90
16825;DHT22;8529;48.108;-1.706;2022-11-11T13:59:33;11.80;99.90
16825;DHT22;8529;48.108;-1.706;2022-11-11T14:02:27;11.70;99.90
16825;DHT22;8529;48.108;-1.706;2022-11-11T14:05:14;11.80;99.90
16825;DHT22;8529;48.108;-1.706;2022-11-11T14:07:57;11.80;99.90
16825;DHT22;8529;48.108;-1.706;2022-11-11T14:10:53;11.80;99.90
16825;DHT22;8529;48.108;-1.706;2022-11-11T14:13:37;11.80;99.90
16825;DHT22;8529;48.108;-1.706;2022-11-11T14:16:11;11.80;99.90
16825;DHT22;8529;48.108;-1.706;2022-11-11T14:18:45;11.80;99.90
16825;DHT22;8529;48.108;-1.706;2022-11-11T14:21:41;11.70;99.90
16825;DHT22;8529;48.108;-1.706;2022-11-11T14:24:08;11.80;99.90
16825;DHT22;8529;48.108;-1.706;2022-11-11T14:26:36;11.80;99.90
16825;DHT22;8529;48.108;-1.706;2022-11-11T14:29:03;11.80;99.90
16825;DHT22;8529;48.108;-1.706;2022-11-11T14:31:51;11.80;99.90
16825;DHT22;8529;48.108;-1.706;2022-11-11T14:37:23;11.80;99.90
16825;DHT22;8529;48.108;-1.706;2022-11-11T14:39:53;11.80;99.90
16825;DHT22;8529;48.108;-1.706;2022-11-11T14:42:43;11.80;99.90
16825;DHT22;8529;48.108;-1.706;2022-11-11T14:48:52;11.80;99.90
16825;DHT22;8529;48.108;-1.706;2022-11-11T14:51:58;11.80;99.90
16825;DHT22;8529;48.108;-1.706;2022-11-11T14:54:36;11.80;99.90
16825;DHT22;8529;48.108;-1.706;2022-11-11T14:57:17;11.80;99.90
16825;DHT22;8529;48.108;-1.706;2022-11-11T14:59:45;11.80;99.90
16825;DHT22;8529;48.108;-1.706;2022-11-11T15:02:22;11.80;99.90
16825;DHT22;8529;48.108;-1.706;2022-11-11T15:04:51;11.80;99.90
16825;DHT22;8529;48.108;-1.706;2022-11-11T15:07:31;11.70;99.90
16825;DHT22;8529;48.108;-1.706;2022-11-11T15:10:19;11.70;99.90
16825;DHT22;8529;48.108;-1.706;2022-11-11T15:13:21;11.70;99.90
16825;DHT22;8529;48.108;-1.706;2022-11-11T15:15:58;11.70;99.90
16825;DHT22;8529;48.108;-1.706;2022-11-11T15:18:50;11.70;99.90
16825;DHT22;8529;48.108;-1.706;2022-11-11T15:21:31;11.80;99.90
16825;DHT22;8529;48.108;-1.706;2022-11-11T15:24:10;11.80;99.90
16825;DHT22;8529;48.108;-1.706;2022-11-11T15:26:46;11.80;99.90
16825;DHT22;8529;48.108;-1.706;2022-11-11T15:29:47;11.80;99.90
16825;DHT22;8529;48.108;-1.706;2022-11-11T15:32:24;11.80;99.90
16825;DHT22;8529;48.108;-1.706;2022-11-11T15:34:59;11.80;99.90
16825;DHT22;8529;48.108;-1.706;2022-11-11T15:37:30;11.80;99.90
16825;DHT22;8529;48.108;-1.706;2022-11-11T15:39:58;11.90;99.90
16825;DHT22;8529;48.108;-1.706;2022-11-11T15:42:28;11.80;99.90
16825;DHT22;8529;48.108;-1.706;2022-11-11T15:44:58;11.80;99.90
16825;DHT22;8529;48.108;-1.706;2022-11-11T15:47:27;11.80;99.90
16825;DHT22;8529;48.108;-1.706;2022-11-11T15:49:54;11.80;99.90
16825;DHT22;8529;48.108;-1.706;2022-11-11T15:52:27;11.90;99.90
16825;DHT22;8529;48.108;-1.706;2022-11-11T15:54:55;11.90;99.90
16825;DHT22;8529;48.108;-1.706;2022-11-11T15:57:25;11.90;99.90
16825;DHT22;8529;48.108;-1.706;2022-11-11T15:59:53;11.90;99.90
16825;DHT22;8529;48.108;-1.706;2022-11-11T16:02:22;11.90;99.90
16825;DHT22;8529;48.108;-1.706;2022-11-11T16:04:54;12.00;99.90
16825;DHT22;8529;48.108;-1.706;2022-11-11T16:07:23;12.00;99.90
16825;DHT22;8529;48.108;-1.706;2022-11-11T16:09:51;12.00;99.90
16825;DHT22;8529;48.108;-1.706;2022-11-11T16:12:21;12.00;99.90
16825;DHT22;8529;48.108;-1.706;2022-11-11T16:14:53;12.00;99.90
16825;DHT22;8529;48.108;-1.706;2022-11-11T16:17:24;12.00;99.90